Time;durP1;ratioP1;P1;durP2;ratioP2;P2;SDS_P1;SDS_P2;PMS_P1;PMS_P2;Temp;Humidity;BMP_temperature;BMP_pressure;BME280_temperature;BME280_humidity;BME280_pressure;Samples;Min_cycle;Max_cycle;Signal;HPM_P1;HPM_P2
2022/10/01 00:00:12;;;;;;;10.35;7.80;;;;;;;7.73;83.44;97821.66;4957578;28;20043;-91
2022/10/01 00:02:39;;;;;;;9.68;7.95;;;;;;;7.72;84.00;97832.28;4956775;28;20769;-92
2022/10/01 00:05:07;;;;;;;19.27;10.25;;;;;;;7.66;85.01;97815.56;4974467;28;20158;-91
2022/10/01 00:07:40;;;;;;;15.07;10.43;;;;;;;7.73;85.18;97837.31;4973352;28;20055;-91
2022/10/01 00:10:07;;;;;;;13.45;9.07;;;;;;;7.66;85.27;97828.63;4974657;28;20081;-91
2022/10/01 00:12:34;;;;;;;12.35;8.88;;;;;;;7.72;84.97;97827.88;4972420;28;20047;-92
2022/10/01 00:15:02;;;;;;;13.55;9.18;;;;;;;7.65;84.58;97813.94;4972509;28;20126;-91
2022/10/01 00:17:32;;;;;;;13.93;9.00;;;;;;;7.62;84.43;97819.56;4973208;28;20055;-90
2022/10/01 00:19:59;;;;;;;14.75;9.48;;;;;;;7.63;85.00;97829.00;4973127;28;20055;-92
2022/10/01 00:22:26;;;;;;;9.98;8.07;;;;;;;7.62;84.01;97835.22;4955899;28;20126;-91
2022/10/01 00:24:56;;;;;;;12.13;8.05;;;;;;;7.58;83.86;97831.38;4956868;28;20073;-94
2022/10/01 00:27:23;;;;;;;10.18;8.35;;;;;;;7.55;83.51;97825.69;4972688;28;20058;-92
2022/10/01 00:29:50;;;;;;;12.35;8.27;;;;;;;7.63;83.52;97823.78;4973362;28;20051;-91
2022/10/01 00:32:17;;;;;;;14.30;8.63;;;;;;;7.73;82.75;97839.91;4955861;28;20059;-90
2022/10/01 00:34:44;;;;;;;10.65;8.45;;;;;;;7.73;83.41;97819.03;4972211;28;20051;-90
2022/10/01 00:37:11;;;;;;;12.57;9.60;;;;;;;7.72;84.56;97825.25;4973782;28;20046;-92
2022/10/01 00:39:37;;;;;;;13.68;9.45;;;;;;;7.85;84.40;97839.41;4973429;28;20063;-90
2022/10/01 00:42:20;;;;;;;12.75;8.85;;;;;;;7.86;84.77;97831.41;4956364;28;20549;-96
2022/10/01 00:44:48;;;;;;;17.65;9.55;;;;;;;7.84;84.52;97833.38;4973605;28;20133;-89
2022/10/01 00:47:26;;;;;;;13.77;9.05;;;;;;;7.99;84.77;97841.16;4973273;28;20047;-89
2022/10/01 00:50:06;;;;;;;11.23;8.30;;;;;;;7.77;82.32;97830.72;4949135;28;20438;-92
2022/10/01 00:52:39;;;;;;;9.60;7.95;;;;;;;7.95;83.02;97839.91;4969832;28;20031;-89
2022/10/01 00:55:25;;;;;;;11.50;8.18;;;;;;;7.85;82.52;97828.97;4976145;28;20074;-89
2022/10/01 00:57:53;;;;;;;13.07;8.25;;;;;;;7.88;82.50;97821.56;4969967;28;20443;-87
2022/10/01 01:00:21;;;;;;;12.10;8.77;;;;;;;7.89;83.25;97833.63;4965608;28;20051;-88
2022/10/01 01:02:48;;;;;;;14.85;9.23;;;;;;;7.93;83.63;97826.25;4969815;28;20490;-88
2022/10/01 01:05:16;;;;;;;13.20;9.65;;;;;;;7.92;83.84;97822.03;4970989;28;20042;-88
2022/10/01 01:07:48;;;;;;;14.07;9.85;;;;;;;7.81;84.10;97804.25;4953843;28;20088;-88
2022/10/01 01:10:23;;;;;;;11.63;8.80;;;;;;;7.76;84.51;97799.59;4971308;28;20482;-89
2022/10/01 01:13:22;;;;;;;14.82;9.88;;;;;;;7.95;85.01;97819.03;4969436;28;20439;-89
2022/10/01 01:16:07;;;;;;;14.38;9.55;;;;;;;7.92;85.38;97811.56;4935139;29;20054;-88
2022/10/01 01:18:42;;;;;;;14.80;9.20;;;;;;;7.82;85.53;97798.84;4961133;28;20050;-88
2022/10/01 01:21:20;;;;;;;15.18;10.00;;;;;;;7.82;85.45;97800.66;4965089;28;20049;-88
2022/10/01 01:24:34;;;;;;;14.80;9.60;;;;;;;7.84;86.24;97814.31;4947033;29;20066;-87
2022/10/01 01:27:33;;;;;;;16.48;10.43;;;;;;;7.78;86.46;97808.03;4930448;29;20139;-88
2022/10/01 01:30:03;;;;;;;16.27;10.25;;;;;;;7.74;86.80;97825.09;4968019;28;20064;-89
2022/10/01 01:32:49;;;;;;;14.30;10.13;;;;;;;7.75;86.71;97817.06;4976570;28;20516;-89
2022/10/01 01:35:32;;;;;;;14.07;8.80;;;;;;;7.68;86.68;97818.81;4953971;28;20529;-88
2022/10/01 01:38:13;;;;;;;13.75;10.13;;;;;;;7.60;86.83;97802.47;4949545;28;20518;-88
2022/10/01 01:40:45;;;;;;;17.45;10.75;;;;;;;7.57;86.92;97795.03;4968670;28;20045;-89
2022/10/01 01:43:26;;;;;;;15.57;10.32;;;;;;;7.58;86.61;97794.03;4970673;28;20105;-88
2022/10/01 01:45:53;;;;;;;17.25;10.63;;;;;;;7.61;86.62;97799.66;4970689;28;20047;-89
2022/10/01 01:48:25;;;;;;;17.75;10.57;;;;;;;7.49;86.87;97785.50;4951972;28;20058;-87
2022/10/01 01:51:15;;;;;;;17.90;10.85;;;;;;;7.51;87.38;97800.00;4965798;28;20043;-86
2022/10/01 01:53:46;;;;;;;15.00;10.35;;;;;;;7.51;87.44;97793.97;4964624;28;20047;-88
2022/10/01 01:56:16;;;;;;;15.57;11.13;;;;;;;7.38;87.32;97783.41;4970840;28;20098;-88
2022/10/01 01:58:44;;;;;;;19.80;11.15;;;;;;;7.42;87.44;97779.41;4953144;28;20117;-90
2022/10/01 02:01:36;;;;;;;17.20;11.15;;;;;;;7.45;87.36;97785.09;4953147;28;20081;-88
2022/10/01 02:04:18;;;;;;;15.50;10.35;;;;;;;7.57;87.41;97793.22;4970453;28;20038;-89
2022/10/01 02:07:06;;;;;;;17.50;11.40;;;;;;;7.55;87.09;97784.75;4953846;28;20373;-87
2022/10/01 02:10:05;;;;;;;16.13;10.38;;;;;;;7.36;87.35;97764.50;4968831;28;20510;-89
2022/10/01 02:13:02;;;;;;;16.55;10.45;;;;;;;7.45;87.68;97771.22;4965266;28;20051;-89
2022/10/01 02:16:00;;;;;;;16.35;10.32;;;;;;;7.47;87.75;97777.06;4970354;28;20086;-90
2022/10/01 02:19:12;;;;;;;13.95;10.18;;;;;;;7.41;87.54;97770.78;4953302;28;20049;-88
2022/10/01 02:22:03;;;;;;;17.13;10.00;;;;;;;7.36;87.50;97760.09;4947890;28;20118;-87
2022/10/01 02:24:44;;;;;;;16.90;10.93;;;;;;;7.37;87.42;97755.69;4964299;28;20043;-89
2022/10/01 02:27:25;;;;;;;16.27;10.60;;;;;;;7.33;87.39;97750.06;4953682;28;20550;-88
2022/10/01 02:29:56;;;;;;;16.45;10.70;;;;;;;7.29;87.45;97743.56;4949559;28;20142;-90
2022/10/01 02:32:26;;;;;;;15.52;11.00;;;;;;;7.29;87.12;97761.84;4967358;28;20042;-88
2022/10/01 02:34:53;;;;;;;15.40;10.63;;;;;;;7.23;87.35;97755.56;4974259;28;20070;-87
2022/10/01 02:37:25;;;;;;;20.48;11.65;;;;;;;7.25;87.30;97755.38;4969213;28;20042;-87
2022/10/01 02:39:55;;;;;;;;;;;;;;;7.33;87.85;97770.91;4971911;28;20042;-88
2022/10/01 02:42:28;;;;;;;16.73;11.05;;;;;;;7.28;87.71;97756.81;4974205;28;20326;-87
2022/10/01 02:45:01;;;;;;;18.77;10.85;;;;;;;7.25;87.81;97752.75;4973215;28;20035;-90
2022/10/01 02:47:46;;;;;;;18.98;11.45;;;;;;;7.28;87.51;97751.59;4976612;28;20074;-90
2022/10/01 02:50:14;;;;;;;17.92;11.23;;;;;;;7.25;87.58;97750.16;4969154;28;20046;-89
2022/10/01 02:52:54;;;;;;;19.55;11.80;;;;;;;7.30;87.65;97760.03;4969948;28;20047;-88
2022/10/01 02:55:29;;;;;;;16.80;10.60;;;;;;;7.33;87.74;97762.28;4969138;28;20495;-88
2022/10/01 02:57:57;;;;;;;17.52;10.82;;;;;;;7.24;87.49;97753.75;4968348;28;20102;-88
2022/10/01 03:00:25;;;;;;;17.85;11.55;;;;;;;7.20;87.17;97748.13;4973811;28;20121;-88
2022/10/01 03:02:53;;;;;;;16.50;11.00;;;;;;;7.25;86.88;97750.97;4973436;28;20076;-88
2022/10/01 03:05:20;;;;;;;17.45;10.60;;;;;;;7.20;86.70;97749.94;4972443;28;20415;-88
2022/10/01 03:07:47;;;;;;;15.30;10.30;;;;;;;7.18;87.18;97729.22;4974084;28;20513;-89
2022/10/01 03:10:15;;;;;;;15.02;10.55;;;;;;;7.21;86.90;97752.34;4956341;28;20090;-88
2022/10/01 03:12:45;;;;;;;17.73;10.13;;;;;;;7.10;86.90;97734.59;4973095;28;20050;-88
2022/10/01 03:15:18;;;;;;;16.40;10.18;;;;;;;7.04;86.88;97732.72;4943113;29;20135;-87
2022/10/01 03:17:49;;;;;;;17.85;11.40;;;;;;;7.11;86.53;97746.63;4954149;28;20062;-87
2022/10/01 03:20:16;;;;;;;;;;;;;;;7.11;87.09;97745.81;4973779;28;20038;-88
2022/10/01 03:22:46;;;;;;;18.00;11.13;;;;;;;7.09;87.51;97742.59;4973782;28;19926;-88
2022/10/01 03:25:14;;;;;;;18.38;11.48;;;;;;;7.01;87.70;97734.88;4971804;28;20096;-88
2022/10/01 03:27:42;;;;;;;18.10;11.80;;;;;;;7.10;87.77;97739.78;4970013;28;20047;-88
2022/10/01 03:30:09;;;;;;;20.85;12.00;;;;;;;7.19;87.13;97743.06;4956317;28;20517;-88
2022/10/01 03:32:36;;;;;;;17.70;10.35;;;;;;;7.10;87.01;97724.16;4973135;28;20134;-88
2022/10/01 03:35:04;;;;;;;19.50;11.48;;;;;;;7.14;87.49;97735.84;4971875;28;20149;-88
2022/10/01 03:37:31;;;;;;;18.25;11.30;;;;;;;7.01;87.59;97720.03;4972429;28;20046;-87
2022/10/01 03:40:00;;;;;;;18.75;11.20;;;;;;;6.98;87.44;97726.44;4971245;28;20423;-87
2022/10/01 03:42:26;;;;;;;17.33;11.50;;;;;;;7.17;87.58;97737.25;4970868;28;20488;-88
2022/10/01 03:44:53;;;;;;;16.58;10.45;;;;;;;7.12;87.31;97727.38;4955495;28;20043;-87
2022/10/01 03:47:23;;;;;;;19.08;12.13;;;;;;;7.06;87.55;97715.06;4973116;28;20049;-90
2022/10/01 03:49:49;;;;;;;18.45;10.85;;;;;;;7.08;87.06;97720.94;4967815;28;20070;-87
2022/10/01 03:52:16;;;;;;;19.55;10.93;;;;;;;7.08;87.36;97723.53;4960916;28;20070;-87
2022/10/01 03:54:43;;;;;;;20.20;11.38;;;;;;;6.99;88.04;97703.78;4972568;28;20426;-88
2022/10/01 03:57:10;;;;;;;15.88;11.02;;;;;;;7.01;87.53;97706.19;4971524;28;20146;-88
2022/10/01 03:59:36;;;;;;;16.98;10.45;;;;;;;7.08;87.35;97714.91;4972902;28;20082;-89
2022/10/01 04:02:03;;;;;;;16.92;10.95;;;;;;;7.12;87.59;97703.09;4972584;28;20654;-88
2022/10/01 04:04:30;;;;;;;20.48;11.48;;;;;;;7.10;87.02;97692.84;4971193;28;20035;-88
2022/10/01 04:06:57;;;;;;;19.77;11.73;;;;;;;7.12;87.23;97690.84;4954839;28;20050;-88
2022/10/01 04:09:24;;;;;;;18.60;11.45;;;;;;;7.12;86.87;97696.06;4972183;28;20503;-88
2022/10/01 04:11:51;;;;;;;18.42;11.48;;;;;;;7.14;87.03;97688.88;4972137;28;20122;-88
2022/10/01 04:14:18;;;;;;;16.75;11.02;;;;;;;7.08;87.20;97694.84;4971950;28;20483;-87
2022/10/01 04:16:44;;;;;;;19.25;11.32;;;;;;;7.17;87.10;97709.38;4954586;28;20043;-88
2022/10/01 04:19:11;;;;;;;19.40;10.52;;;;;;;7.19;86.85;97686.50;4970526;28;20047;-89
2022/10/01 04:21:38;;;;;;;17.98;10.88;;;;;;;7.19;86.83;97699.53;4954973;28;20054;-88
2022/10/01 04:24:05;;;;;;;17.98;10.98;;;;;;;7.12;86.96;97690.84;4971703;28;20037;-87
2022/10/01 04:26:32;;;;;;;20.45;11.00;;;;;;;7.13;87.37;97717.75;4970910;28;20093;-87
2022/10/01 04:28:58;;;;;;;17.00;10.93;;;;;;;7.02;87.70;97700.81;4972083;28;20070;-88
2022/10/01 04:31:25;;;;;;;21.02;10.82;;;;;;;7.11;87.80;97714.53;4971774;28;20055;-87
2022/10/01 04:33:55;;;;;;;20.10;12.00;;;;;;;7.14;87.94;97701.94;4971565;28;20093;-87
2022/10/01 04:36:24;;;;;;;18.52;11.52;;;;;;;7.12;88.17;97690.84;4972115;28;20051;-88
2022/10/01 04:38:58;;;;;;;18.55;11.43;;;;;;;7.14;87.57;97683.66;4940731;28;20043;-88
2022/10/01 04:41:30;;;;;;;21.48;12.50;;;;;;;7.16;87.95;97679.06;4954566;28;20050;-87
2022/10/01 04:43:58;;;;;;;18.98;11.27;;;;;;;7.21;87.64;97676.72;4971674;28;20043;-89
2022/10/01 04:46:28;;;;;;;19.75;12.02;;;;;;;7.25;87.65;97675.31;4972129;28;20043;-87
2022/10/01 04:48:58;;;;;;;18.33;11.20;;;;;;;7.35;87.28;97684.63;4970500;28;20042;-87
2022/10/01 04:51:25;;;;;;;19.77;12.27;;;;;;;7.25;87.42;97680.53;4970570;28;20126;-88
2022/10/01 04:53:51;;;;;;;21.00;11.85;;;;;;;7.21;87.23;97678.50;4964188;28;20400;-88
2022/10/01 04:56:18;;;;;;;18.40;11.77;;;;;;;7.21;86.84;97681.13;4971170;28;20125;-89
2022/10/01 04:58:45;;;;;;;21.17;12.10;;;;;;;7.29;87.27;97690.59;4971075;28;20050;-88
2022/10/01 05:01:12;;;;;;;19.15;11.43;;;;;;;7.25;86.91;97696.19;4971077;28;20388;-87
2022/10/01 05:03:41;;;;;;;20.15;11.35;;;;;;;7.29;87.09;97701.84;4971609;28;20047;-88
2022/10/01 05:06:07;;;;;;;21.40;12.43;;;;;;;7.31;87.09;97696.44;4971235;28;20117;-88
2022/10/01 05:08:36;;;;;;;17.90;11.75;;;;;;;7.25;87.31;97692.78;4970527;28;21117;-88
2022/10/01 05:11:03;;;;;;;22.15;12.75;;;;;;;7.37;87.65;97690.47;4951008;28;20047;-87
2022/10/01 05:13:30;;;;;;;20.27;11.75;;;;;;;7.19;88.09;97683.88;4965668;28;20050;-89
2022/10/01 05:16:02;;;;;;;18.60;12.02;;;;;;;7.21;88.18;97679.31;4946755;28;20065;-89
2022/10/01 05:18:34;;;;;;;21.77;12.38;;;;;;;7.27;88.32;97690.81;4970019;28;20055;-90
2022/10/01 05:21:07;;;;;;;20.95;12.13;;;;;;;7.17;88.26;97670.25;4970142;28;20481;-89
2022/10/01 05:23:36;;;;;;;;;;;;;;;7.37;88.25;97698.28;4969659;28;20098;-88
2022/10/01 05:26:04;;;;;;;18.75;11.25;;;;;;;7.24;87.92;97696.38;4971257;28;19982;-88
2022/10/01 05:28:32;;;;;;;19.80;11.48;;;;;;;7.27;88.23;97705.66;4953551;28;20105;-88
2022/10/01 05:31:02;;;;;;;22.60;12.48;;;;;;;7.20;88.66;97690.75;4971711;28;20120;-88
2022/10/01 05:33:32;;;;;;;21.88;12.15;;;;;;;7.23;88.49;97692.97;4956173;28;20042;-87
2022/10/01 05:36:05;;;;;;;19.37;11.53;;;;;;;7.21;88.06;97692.34;4969699;28;20050;-88
2022/10/01 05:38:35;;;;;;;19.45;11.38;;;;;;;7.32;88.45;97706.69;4953248;28;20777;-88
2022/10/01 05:41:04;;;;;;;19.77;11.40;;;;;;;7.27;88.04;97697.81;4968345;28;20046;-88
2022/10/01 05:43:31;;;;;;;22.00;12.82;;;;;;;7.29;88.07;97680.16;4969227;28;20049;-88
2022/10/01 05:46:04;;;;;;;20.27;12.23;;;;;;;7.46;88.04;97712.81;4970241;28;20042;-89
2022/10/01 05:48:33;;;;;;;20.27;12.02;;;;;;;7.37;88.21;97693.06;4970621;28;20053;-87
2022/10/01 05:51:01;;;;;;;20.55;12.02;;;;;;;7.33;88.26;97674.41;4970663;28;20046;-87
2022/10/01 05:53:28;;;;;;;22.75;11.65;;;;;;;7.30;88.00;97671.34;4965759;28;20047;-89
2022/10/01 05:55:55;;;;;;;20.55;11.68;;;;;;;7.48;88.28;97708.22;4970385;28;20050;-87
2022/10/01 05:58:22;;;;;;;19.73;11.73;;;;;;;7.51;87.92;97685.16;4970285;28;20042;-87
2022/10/01 06:00:51;;;;;;;20.48;11.93;;;;;;;7.55;87.56;97690.78;4970765;28;20061;-88
2022/10/01 06:03:17;;;;;;;20.38;12.38;;;;;;;7.60;87.63;97683.22;4970301;28;20418;-89
2022/10/01 06:05:44;;;;;;;21.05;11.18;;;;;;;7.54;87.56;97683.16;4937093;28;20121;-87
2022/10/01 06:08:11;;;;;;;21.65;12.23;;;;;;;7.58;87.78;97680.00;4972236;28;20058;-87
2022/10/01 06:10:40;;;;;;;19.88;11.75;;;;;;;7.56;87.63;97671.56;4955780;28;20039;-88
2022/10/01 06:13:07;;;;;;;20.58;12.20;;;;;;;7.63;87.75;97672.41;4968980;28;20446;-89
2022/10/01 06:15:37;;;;;;;22.52;12.68;;;;;;;7.60;87.52;97646.66;4956987;28;20042;-89
2022/10/01 06:18:07;;;;;;;20.00;11.90;;;;;;;7.61;87.77;97650.09;4974010;28;20078;-90
2022/10/01 06:20:34;;;;;;;20.40;11.48;;;;;;;7.73;87.97;97670.22;4951676;28;20066;-89
2022/10/01 06:23:04;;;;;;;20.70;12.45;;;;;;;7.65;87.85;97659.16;4974146;28;20125;-89
2022/10/01 06:25:33;;;;;;;19.73;11.27;;;;;;;7.65;88.50;97654.72;4974184;28;20039;-89
2022/10/01 06:28:08;;;;;;;19.85;11.82;;;;;;;7.73;88.72;97666.81;4950922;28;20474;-90
2022/10/01 06:30:37;;;;;;;21.67;12.98;;;;;;;7.67;88.51;97636.25;4963776;28;20051;-90
2022/10/01 06:33:08;;;;;;;21.10;12.63;;;;;;;7.83;88.55;97656.84;4956037;28;20479;-90
2022/10/01 06:35:41;;;;;;;20.73;11.95;;;;;;;7.85;88.47;97659.25;4973310;28;20121;-87
2022/10/01 06:38:10;;;;;;;21.55;12.18;;;;;;;7.74;88.32;97637.94;4971934;28;20043;-88
2022/10/01 06:40:38;;;;;;;21.02;11.98;;;;;;;7.82;88.06;97630.94;4973678;28;20039;-89
2022/10/01 06:43:06;;;;;;;21.65;11.75;;;;;;;8.00;87.91;97657.34;4956500;28;20038;-88
2022/10/01 06:45:42;;;;;;;20.10;11.77;;;;;;;8.08;87.80;97646.72;4973458;28;20495;-88
2022/10/01 06:48:13;;;;;;;19.58;11.77;;;;;;;8.05;87.69;97647.13;4972601;28;20049;-89
2022/10/01 06:50:43;;;;;;;18.15;10.77;;;;;;;8.20;87.67;97660.03;4973017;28;20100;-88
2022/10/01 06:53:11;;;;;;;19.90;11.55;;;;;;;8.08;87.58;97633.66;4971128;28;20070;-90
2022/10/01 06:55:41;;;;;;;21.00;11.88;;;;;;;8.19;87.67;97661.84;4956523;28;20392;-88
2022/10/01 06:58:17;;;;;;;19.40;11.50;;;;;;;8.13;87.83;97648.75;4956772;28;20077;-91
2022/10/01 07:00:48;;;;;;;18.00;11.27;;;;;;;8.19;88.07;97656.63;4961433;28;20133;-90
2022/10/01 07:03:20;;;;;;;18.02;11.38;;;;;;;8.29;88.10;97656.25;4973628;28;20070;-89
2022/10/01 07:05:48;;;;;;;18.63;11.52;;;;;;;8.20;88.02;97639.13;4956240;28;20043;-89
2022/10/01 07:08:16;;;;;;;19.10;11.63;;;;;;;8.23;87.46;97636.94;4955634;28;20059;-88
2022/10/01 07:10:44;;;;;;;18.25;10.93;;;;;;;8.42;87.34;97651.09;4952507;28;20061;-90
2022/10/01 07:13:19;;;;;;;20.75;12.20;;;;;;;8.40;87.00;97641.88;4954377;28;20047;-89
2022/10/01 07:15:46;;;;;;;18.75;11.70;;;;;;;8.49;87.46;97645.91;4968892;28;20038;-86
2022/10/01 07:18:13;;;;;;;19.15;11.15;;;;;;;8.45;86.72;97632.41;4972737;28;20075;-89
2022/10/01 07:20:47;;;;;;;20.67;11.13;;;;;;;8.63;86.62;97644.91;4973640;28;20498;-89
2022/10/01 07:23:15;;;;;;;20.70;12.10;;;;;;;8.59;86.48;97643.72;4973377;28;20046;-89
2022/10/01 07:25:43;;;;;;;23.17;12.27;;;;;;;8.60;86.67;97640.09;4952469;29;20058;-89
2022/10/01 07:28:17;;;;;;;20.63;12.02;;;;;;;8.66;87.20;97636.69;4970388;28;20035;-89
2022/10/01 07:30:56;;;;;;;20.70;12.60;;;;;;;8.85;86.72;97645.56;4971763;28;20483;-89
2022/10/01 07:33:26;;;;;;;22.00;12.82;;;;;;;8.62;86.97;97635.47;4948546;28;20047;-89
2022/10/01 07:35:53;;;;;;;19.73;12.25;;;;;;;8.79;87.70;97673.31;4968943;28;20059;-90
2022/10/01 07:38:20;;;;;;;20.10;12.35;;;;;;;8.75;88.21;97650.38;4971874;28;20054;-89
2022/10/01 07:40:53;;;;;;;20.25;12.02;;;;;;;8.87;88.32;97659.25;4972828;28;20085;-91
2022/10/01 07:43:21;;;;;;;15.90;11.30;;;;;;;8.84;87.41;97642.16;4972932;28;20047;-89
2022/10/01 07:45:51;;;;;;;17.75;11.05;;;;;;;9.01;87.49;97668.75;4973732;28;20077;-91
2022/10/01 07:48:18;;;;;;;17.13;11.20;;;;;;;8.93;87.30;97653.22;4952577;28;20074;-90
2022/10/01 07:50:45;;;;;;;28.33;15.15;;;;;;;9.09;88.72;97663.28;4971586;28;20435;-91
2022/10/01 07:53:12;;;;;;;18.65;12.50;;;;;;;9.20;88.96;97667.13;4968792;28;20467;-85
2022/10/01 07:55:39;;;;;;;21.17;13.82;;;;;;;9.03;88.95;97637.13;4971450;28;20035;-84
2022/10/01 07:58:06;;;;;;;27.08;17.58;;;;;;;9.04;89.76;97646.59;4953708;28;20371;-85
2022/10/01 08:00:34;;;;;;;34.88;21.27;;;;;;;8.99;89.38;97641.16;4952543;28;20043;-85
2022/10/01 08:03:01;;;;;;;19.50;11.73;;;;;;;8.90;89.63;97637.13;4971194;28;20386;-84
2022/10/01 08:05:32;;;;;;;20.23;12.80;;;;;;;9.05;90.25;97669.94;4970986;28;20061;-86
2022/10/01 08:08:02;;;;;;;21.00;12.65;;;;;;;9.10;90.74;97658.88;4950102;28;20051;-88
2022/10/01 08:10:32;;;;;;;24.42;13.57;;;;;;;9.03;91.01;97655.44;4971761;28;20130;-89
2022/10/01 08:13:13;;;;;;;21.52;12.60;;;;;;;9.02;91.20;97661.69;4971546;28;20546;-87
2022/10/01 08:15:42;;;;;;;22.63;13.45;;;;;;;8.92;91.18;97648.19;4953666;28;20387;-88
2022/10/01 08:18:10;;;;;;;23.30;13.07;;;;;;;8.95;91.74;97656.47;4971816;28;20047;-88
2022/10/01 08:20:39;;;;;;;23.95;13.90;;;;;;;8.96;92.01;97652.84;4971794;28;20207;-86
2022/10/01 08:23:10;;;;;;;24.27;13.40;;;;;;;9.04;92.30;97654.44;4970228;28;20130;-87
2022/10/01 08:25:38;;;;;;;24.10;14.85;;;;;;;9.01;92.52;97657.47;4977384;28;20046;-87
2022/10/01 08:28:06;;;;;;;28.27;18.10;;;;;;;8.95;92.56;97638.16;4970590;28;20125;-87
2022/10/01 08:30:36;;;;;;;24.58;15.73;;;;;;;8.85;92.65;97629.88;4954568;28;20093;-89
2022/10/01 08:33:03;;;;;;;26.05;17.25;;;;;;;8.91;92.70;97633.50;4970516;28;20517;-88
2022/10/01 08:35:32;;;;;;;23.83;14.05;;;;;;;8.89;93.17;97623.25;4958555;28;20129;-87
2022/10/01 08:38:05;;;;;;;22.75;14.70;;;;;;;9.03;93.38;97647.59;4953854;28;20224;-89
2022/10/01 08:40:37;;;;;;;20.52;12.52;;;;;;;8.97;93.76;97630.91;4966564;28;20054;-88
2022/10/01 08:43:37;;;;;;;19.80;12.10;;;;;;;9.08;93.04;97645.19;4967299;28;20126;-89
2022/10/01 08:46:18;;;;;;;18.48;12.00;;;;;;;9.05;93.29;97633.31;4957163;28;21107;-87
2022/10/01 08:48:57;;;;;;;16.58;11.45;;;;;;;9.18;93.31;97637.75;4967644;28;20063;-87
2022/10/01 08:51:39;;;;;;;19.05;11.75;;;;;;;9.15;93.73;97632.91;4961354;28;20043;-87
2022/10/01 08:54:38;;;;;;;18.75;10.98;;;;;;;9.13;93.53;97624.47;4971881;28;20401;-89
2022/10/01 08:57:19;;;;;;;60.58;29.80;;;;;;;9.14;93.34;97620.84;4970618;28;20045;-88
2022/10/01 08:59:58;;;;;;;25.90;12.82;;;;;;;9.07;93.66;97606.97;4971374;28;20069;-88
2022/10/01 09:02:30;;;;;;;17.48;9.30;;;;;;;9.10;93.33;97611.78;4970406;28;20077;-90
2022/10/01 09:05:05;;;;;;;22.55;12.20;;;;;;;9.19;93.83;97607.16;4954291;28;20038;-92
2022/10/01 09:07:55;;;;;;;43.72;20.65;;;;;;;9.13;93.79;97595.69;4969578;28;20511;-88
2022/10/01 09:11:05;;;;;;;31.05;17.38;;;;;;;9.18;93.85;97603.75;4957937;28;20055;-88
2022/10/01 09:14:12;;;;;;;20.52;12.13;;;;;;;9.26;94.20;97581.78;4961269;28;20099;-88
2022/10/01 09:17:01;;;;;;;17.80;11.13;;;;;;;9.26;93.93;97584.41;4962087;28;20715;-87
2022/10/01 09:20:20;;;;;;;14.25;9.70;;;;;;;9.27;94.38;97581.56;4964234;28;20108;-87
2022/10/01 09:23:14;;;;;;;13.65;9.02;;;;;;;9.28;94.42;97582.38;4948108;28;20074;-87
2022/10/01 09:25:45;;;;;;;16.83;10.52;;;;;;;9.29;94.21;97561.22;4967165;28;20471;-86
2022/10/01 09:28:28;;;;;;;13.57;7.97;;;;;;;9.38;93.88;97569.69;4953254;28;20569;-87
2022/10/01 09:31:16;;;;;;;12.00;9.23;;;;;;;9.47;93.34;97570.25;4967982;28;20054;-86
2022/10/01 09:33:54;;;;;;;14.48;10.13;;;;;;;9.41;93.73;97569.25;4966501;28;20730;-88
2022/10/01 09:36:43;;;;;;;10.88;8.27;;;;;;;9.46;93.58;97563.41;4964388;28;20593;-89
2022/10/01 09:39:09;;;;;;;12.52;8.55;;;;;;;9.53;93.53;97561.59;4954757;28;20046;-89
2022/10/01 09:41:36;;;;;;;13.18;8.50;;;;;;;9.45;94.15;97535.66;4967229;28;20035;-90
2022/10/01 09:44:04;;;;;;;13.48;8.88;;;;;;;9.60;93.61;97546.69;4950974;28;20840;-90
2022/10/01 09:46:30;;;;;;;13.32;9.38;;;;;;;9.58;93.69;97538.22;4970834;28;20043;-90
2022/10/01 09:49:12;;;;;;;11.95;8.63;;;;;;;9.50;93.55;97544.50;4967541;28;20043;-89
2022/10/01 09:51:48;;;;;;;14.13;9.43;;;;;;;9.55;93.76;97534.22;4966574;28;20051;-89
2022/10/01 09:54:42;;;;;;;13.35;9.55;;;;;;;9.67;93.76;97526.50;4953898;28;20504;-89
2022/10/01 09:57:17;;;;;;;12.70;9.63;;;;;;;9.80;93.39;97549.22;4969813;28;20043;-90
2022/10/01 09:59:56;;;;;;;13.85;9.02;;;;;;;9.77;93.52;97545.19;4969260;28;20035;-90
2022/10/01 10:02:32;;;;;;;13.55;9.52;;;;;;;9.78;94.21;97540.78;4971425;28;20046;-89
2022/10/01 10:05:08;;;;;;;12.95;8.82;;;;;;;9.70;93.84;97523.47;4961451;28;20521;-90
2022/10/01 10:07:36;;;;;;;12.75;8.65;;;;;;;9.81;94.45;97545.59;4970321;28;20139;-90
2022/10/01 10:10:35;;;;;;;22.35;11.07;;;;;;;9.69;94.24;97527.09;4969796;28;20502;-89
2022/10/01 10:13:09;;;;;;;11.38;7.30;;;;;;;9.60;93.50;97529.16;4932198;29;20067;-90
2022/10/01 10:15:57;;;;;;;17.90;9.77;;;;;;;9.70;93.73;97525.28;4967452;28;20947;-88
2022/10/01 10:18:34;;;;;;;11.95;7.72;;;;;;;9.64;93.86;97532.16;4970736;28;20463;-88
2022/10/01 10:21:13;;;;;;;9.85;7.40;;;;;;;9.79;93.93;97545.00;4970597;28;20157;-90
2022/10/01 10:23:59;;;;;;;10.88;7.72;;;;;;;9.73;93.51;97541.41;4971030;28;20043;-90
2022/10/01 10:26:32;;;;;;;10.00;7.43;;;;;;;9.73;93.34;97523.06;4965393;28;20035;-92
2022/10/01 10:29:02;;;;;;;9.57;6.93;;;;;;;9.97;92.64;97539.09;4969143;28;20744;-89
2022/10/01 10:31:41;;;;;;;11.48;6.72;;;;;;;9.88;92.34;97552.41;4967079;28;20399;-91
2022/10/01 10:34:23;;;;;;;7.28;5.38;;;;;;;10.03;90.90;97546.09;4948453;28;20638;-88
2022/10/01 10:37:10;;;;;;;9.13;6.95;;;;;;;10.02;91.50;97545.31;4966624;28;20410;-90
2022/10/01 10:39:42;;;;;;;8.68;6.13;;;;;;;10.01;92.33;97533.19;4970824;28;20046;-90
2022/10/01 10:42:15;;;;;;;9.18;5.97;;;;;;;10.11;91.95;97545.84;4955100;28;20039;-90
2022/10/01 10:44:48;;;;;;;8.88;5.47;;;;;;;10.01;91.46;97535.81;4966269;28;20055;-91
2022/10/01 10:47:19;;;;;;;8.30;5.93;;;;;;;10.10;91.36;97545.06;4951695;29;20039;-90
2022/10/01 10:49:55;;;;;;;9.68;6.35;;;;;;;10.08;90.21;97547.09;4940084;28;20043;-91
2022/10/01 10:52:36;;;;;;;7.95;5.63;;;;;;;9.86;91.73;97527.44;4961538;28;20101;-89
2022/10/01 10:55:29;;;;;;;9.10;6.13;;;;;;;10.02;93.35;97537.44;4963885;28;20392;-91
2022/10/01 10:58:14;;;;;;;7.47;5.65;;;;;;;10.11;92.39;97535.38;4973985;28;20042;-89
2022/10/01 11:00:50;;;;;;;7.53;5.63;;;;;;;10.05;90.59;97521.28;4974751;28;20534;-90
2022/10/01 11:03:23;;;;;;;7.10;5.30;;;;;;;9.93;92.02;97513.28;4968208;28;20039;-91
2022/10/01 11:05:51;;;;;;;5.72;4.53;;;;;;;10.01;92.04;97524.53;4974253;28;20053;-90
2022/10/01 11:08:24;;;;;;;7.68;4.60;;;;;;;10.00;92.71;97518.50;4969185;28;20114;-90
2022/10/01 11:11:15;;;;;;;9.00;4.93;;;;;;;10.27;92.51;97521.81;4956200;28;20058;-89
2022/10/01 11:14:15;;;;;;;5.45;4.03;;;;;;;10.15;90.55;97510.38;4958407;28;20149;-89
2022/10/01 11:17:17;;;;;;;7.55;4.68;;;;;;;10.33;91.63;97528.84;4957288;28;20146;-90
2022/10/01 11:20:12;;;;;;;4.15;3.40;;;;;;;10.31;89.69;97530.03;4969944;28;20089;-89
2022/10/01 11:23:14;;;;;;;5.60;4.23;;;;;;;10.32;91.67;97535.09;4956704;28;20566;-91
2022/10/01 11:26:01;;;;;;;4.72;3.70;;;;;;;10.44;90.83;97530.78;4971837;28;20043;-89
2022/10/01 11:28:48;;;;;;;4.47;3.85;;;;;;;10.52;90.71;97544.63;4969283;28;20043;-91
2022/10/01 11:32:01;;;;;;;4.43;3.85;;;;;;;10.67;91.14;97545.91;4972580;28;20066;-90
2022/10/01 11:35:09;;;;;;;4.05;3.65;;;;;;;10.92;90.73;97542.53;4932361;28;20559;-88
2022/10/01 11:38:03;;;;;;;4.63;3.20;;;;;;;10.83;88.82;97534.09;4967613;28;20066;-91
2022/10/01 11:40:45;;;;;;;3.45;3.13;;;;;;;10.96;90.45;97530.56;4949411;28;20452;-90
2022/10/01 11:43:27;;;;;;;3.60;2.63;;;;;;;11.05;89.27;97537.16;4968261;28;20058;-90
2022/10/01 11:46:15;;;;;;;3.92;2.78;;;;;;;10.94;90.44;97519.50;4966908;28;20498;-89
2022/10/01 11:48:56;;;;;;;3.72;3.00;;;;;;;10.98;90.08;97524.09;4967703;28;20218;-89
2022/10/01 11:51:35;;;;;;;4.50;2.85;;;;;;;10.98;90.32;97513.59;4948067;28;20059;-90
2022/10/01 11:54:12;;;;;;;4.22;2.47;;;;;;;10.94;89.44;97514.25;4948951;28;20050;-90
2022/10/01 12:00:03;;;;;;;4.55;2.45;;;;;;;10.84;89.52;97527.03;4967916;28;20073;-91
2022/10/01 12:03:01;;;;;;;2.90;2.30;;;;;;;10.88;91.51;97513.28;4967538;28;20108;-87
2022/10/01 12:05:31;;;;;;;4.35;2.60;;;;;;;10.75;89.98;97500.28;4961846;28;20443;-88